createdAt,value
2019-03-19T00:00:53.825Z,100463.77
2019-03-19T00:03:24.523Z,100467.19
2019-03-19T00:05:54.821Z,100467.16
2019-03-19T00:08:25.418Z,100466.69
2019-03-19T00:10:56.046Z,100473.10
2019-03-19T00:13:26.358Z,100467.93
2019-03-19T00:15:56.966Z,100468.34
2019-03-19T00:18:27.627Z,100465.31
2019-03-19T00:20:57.914Z,100458.84
2019-03-19T00:23:28.573Z,100467.83
2019-03-19T00:25:58.853Z,100462.64
2019-03-19T00:28:29.426Z,100466.91
2019-03-19T00:31:00.048Z,100471.63
2019-03-19T00:33:30.744Z,100476.78
2019-03-19T00:36:01.374Z,100478.06
2019-03-19T00:38:32.028Z,100478.05
2019-03-19T00:41:02.684Z,100479.77
2019-03-19T00:43:32.964Z,100482.78
2019-03-19T00:46:03.624Z,100477.18
2019-03-19T00:48:34.280Z,100477.60
2019-03-19T00:51:05.897Z,100476.73
2019-03-19T00:53:36.543Z,100470.75
2019-03-19T00:56:07.319Z,100480.62
2019-03-19T00:58:38.090Z,100477.17
2019-03-19T01:01:08.813Z,100490.06
2019-03-19T01:03:39.156Z,100488.80
2019-03-19T01:06:09.366Z,100495.68
2019-03-19T01:08:39.602Z,100495.23
2019-03-19T01:11:10.229Z,100504.25
2019-03-19T01:13:40.885Z,100503.81
2019-03-19T01:16:11.213Z,100510.64
2019-03-19T01:18:41.786Z,100495.16
2019-03-19T01:21:12.411Z,100498.59
2019-03-19T01:23:42.696Z,100497.73
2019-03-19T01:26:13.282Z,100503.73
2019-03-19T01:28:43.915Z,100503.69
2019-03-19T01:31:14.555Z,100511.45
2019-03-19T01:33:45.222Z,100505.88
2019-03-19T01:36:15.502Z,100498.98
2019-03-19T01:38:47.057Z,100490.76
2019-03-19T01:41:17.699Z,100490.31
2019-03-19T01:43:48.345Z,100488.14
2019-03-19T01:46:19.002Z,100496.27
2019-03-19T01:48:49.423Z,100495.86
2019-03-19T01:51:20.015Z,100500.08
2019-03-19T01:53:50.302Z,100506.92
2019-03-19T01:56:20.543Z,100504.84
2019-03-19T01:58:50.792Z,100512.58
2019-03-19T02:01:21.009Z,100513.89
2019-03-19T02:03:51.683Z,100514.77
2019-03-19T02:06:23.455Z,100519.92
2019-03-19T02:08:53.801Z,100535.34
2019-03-19T02:11:24.376Z,100537.04
2019-03-19T02:13:55.003Z,100545.63
2019-03-19T02:16:25.299Z,100542.59
2019-03-19T02:18:55.530Z,100545.17
2019-03-19T02:21:25.750Z,100545.59
2019-03-19T02:23:55.986Z,100550.31
2019-03-19T02:26:26.196Z,100553.72
2019-03-19T02:28:56.434Z,100554.17
2019-03-19T02:31:26.657Z,100555.47
2019-03-19T02:33:56.917Z,100556.34
2019-03-19T02:36:27.127Z,100558.08
2019-03-19T02:38:57.720Z,100558.48
2019-03-19T02:41:28.376Z,100557.62
2019-03-19T02:43:58.670Z,100562.84
2019-03-19T02:46:28.912Z,100572.77
2019-03-19T02:48:59.135Z,100570.23
2019-03-19T02:51:29.380Z,100571.05
2019-03-19T02:54:00.052Z,100579.23
2019-03-19T02:56:33.218Z,100587.05
2019-03-19T02:59:03.019Z,100587.13
2019-03-19T03:01:33.315Z,100600.52
2019-03-19T03:04:03.555Z,100595.03
2019-03-19T03:06:33.764Z,100596.42
2019-03-19T03:09:05.527Z,100599.45
2019-03-19T03:11:36.581Z,100602.98
2019-03-19T03:14:06.795Z,100609.95
2019-03-19T03:16:37.030Z,100612.63
2019-03-19T03:19:08.568Z,100613.52
2019-03-19T03:21:39.266Z,100618.73
2019-03-19T03:24:09.898Z,100617.92
2019-03-19T03:26:47.724Z,100615.78
2019-03-19T03:29:12.160Z,100614.91
2019-03-19T03:31:42.810Z,100614.44
2019-03-19T03:34:13.085Z,100627.28
2019-03-19T03:36:43.681Z,100620.80
2019-03-19T03:39:14.015Z,100622.05
2019-03-19T03:41:44.252Z,100628.03
2019-03-19T03:44:14.493Z,100636.59
2019-03-19T03:46:45.046Z,100641.77
2019-03-19T03:49:15.703Z,100641.72
2019-03-19T03:51:46.962Z,100638.62
2019-03-19T03:54:17.526Z,100648.88
2019-03-19T03:57:00.910Z,100651.02
2019-03-19T03:59:20.176Z,100655.31
2019-03-19T04:01:50.898Z,100653.16
2019-03-19T04:04:21.540Z,100656.12
2019-03-19T04:06:51.895Z,100658.70
2019-03-19T04:09:22.515Z,100662.12
2019-03-19T04:11:53.182Z,100657.75
2019-03-19T04:14:23.462Z,100657.77
2019-03-19T04:16:53.745Z,100661.17
2019-03-19T04:19:23.948Z,100662.45
2019-03-19T04:21:54.522Z,100675.38
2019-03-19T04:24:24.803Z,100681.37
2019-03-19T04:26:55.391Z,100683.91
2019-03-19T04:29:26.021Z,100686.54
2019-03-19T04:31:56.745Z,100690.87
2019-03-19T04:34:27.058Z,100699.13
2019-03-19T04:36:57.622Z,100700.95
2019-03-19T04:39:28.279Z,100697.92
2019-03-19T04:41:58.557Z,100700.92
2019-03-19T04:44:29.148Z,100703.46
2019-03-19T04:46:59.873Z,100710.74
2019-03-19T04:49:30.212Z,100714.16
2019-03-19T04:52:00.815Z,100719.61
2019-03-19T04:54:31.096Z,100721.30
2019-03-19T04:57:01.333Z,100725.20
2019-03-19T04:59:31.562Z,100736.81
2019-03-19T05:02:02.151Z,100741.63
2019-03-19T05:04:32.426Z,100746.47
2019-03-19T05:07:02.995Z,100748.70
2019-03-19T05:09:33.348Z,100749.59
2019-03-19T05:12:03.656Z,100750.02
2019-03-19T05:14:34.192Z,100751.75
2019-03-19T05:17:04.487Z,100753.92
2019-03-19T05:19:34.863Z,100752.63
2019-03-19T05:22:05.022Z,100763.36
2019-03-19T05:24:35.367Z,100761.25
2019-03-19T05:27:05.587Z,100764.73
2019-03-19T05:29:35.827Z,100770.42
2019-03-19T05:32:06.080Z,100772.17
2019-03-19T05:34:36.293Z,100772.77
2019-03-19T05:37:06.644Z,100781.50
2019-03-19T05:39:37.209Z,100785.05
2019-03-19T05:42:07.947Z,100781.74
2019-03-19T05:44:38.573Z,100779.27
2019-03-19T05:47:08.871Z,100788.42
2019-03-19T05:49:39.446Z,100798.05
2019-03-19T05:52:09.677Z,100804.58
2019-03-19T05:54:39.915Z,100803.27
2019-03-19T05:57:10.800Z,100784.35
2019-03-19T05:59:41.065Z,100821.52
2019-03-19T06:02:11.284Z,100818.12
2019-03-19T06:04:41.917Z,100803.10
2019-03-19T06:07:12.210Z,100810.45
2019-03-19T06:09:45.584Z,100789.94
2019-03-19T06:12:15.881Z,100796.80
2019-03-19T06:14:46.174Z,100796.89
2019-03-19T06:17:16.770Z,100792.98
2019-03-19T06:19:47.063Z,100804.95
2019-03-19T06:22:17.293Z,100793.08
2019-03-19T06:24:47.504Z,100814.83
2019-03-19T06:27:17.774Z,100819.50
2019-03-19T06:29:48.339Z,100817.28
2019-03-19T06:32:18.654Z,100824.24
2019-03-19T06:34:48.948Z,100829.15
2019-03-19T06:37:19.175Z,100831.57
2019-03-19T06:39:50.800Z,100832.00
2019-03-19T06:42:21.293Z,100833.25
2019-03-19T06:44:51.881Z,100841.44
2019-03-19T06:47:23.706Z,100836.59
2019-03-19T06:49:54.356Z,100849.95
2019-03-19T06:52:24.674Z,100869.09
2019-03-19T06:54:55.278Z,100836.02
2019-03-19T06:57:25.969Z,100850.47
2019-03-19T06:59:56.680Z,100842.33
2019-03-19T07:02:27.409Z,100853.72
2019-03-19T07:04:57.701Z,100864.91
2019-03-19T07:07:27.917Z,100876.72
2019-03-19T07:09:58.130Z,100872.67
2019-03-19T07:12:28.390Z,100871.41
2019-03-19T07:14:58.617Z,100876.49
2019-03-19T07:17:28.869Z,100885.20
2019-03-19T07:19:59.471Z,100887.08
2019-03-19T07:22:30.121Z,100884.70
2019-03-19T07:25:00.490Z,100896.37
2019-03-19T07:27:30.734Z,100911.39
2019-03-19T07:30:00.967Z,100901.66
2019-03-19T07:32:31.189Z,100906.91
2019-03-19T07:35:01.421Z,100909.79
2019-03-19T07:37:31.895Z,100917.89
2019-03-19T07:40:02.120Z,100926.30
2019-03-19T07:42:32.426Z,100925.05
2019-03-19T07:45:02.703Z,100940.69
2019-03-19T07:47:32.919Z,100931.69
2019-03-19T07:50:03.197Z,100932.34
2019-03-19T07:52:33.399Z,100930.81
2019-03-19T07:55:03.710Z,100936.55
2019-03-19T07:57:34.309Z,100944.50
2019-03-19T08:00:12.494Z,100957.42
2019-03-19T08:02:42.843Z,100961.08
2019-03-19T08:05:14.491Z,100964.23
2019-03-19T08:07:44.721Z,100974.28
2019-03-19T08:10:17.024Z,100982.39
2019-03-19T08:12:47.403Z,101000.11
2019-03-19T08:15:22.032Z,101000.27
2019-03-19T08:17:52.470Z,100986.56
2019-03-19T08:20:23.046Z,100987.09
2019-03-19T08:22:54.100Z,100993.77
2019-03-19T08:25:24.713Z,100989.23
2019-03-19T08:27:55.356Z,100994.30
2019-03-19T08:30:28.013Z,100998.20
2019-03-19T08:32:58.318Z,101001.72
2019-03-19T08:35:28.522Z,100988.64
2019-03-19T08:37:59.127Z,100996.64
2019-03-19T08:40:29.791Z,100993.77
2019-03-19T08:43:00.162Z,101005.49
2019-03-19T08:45:30.386Z,101006.87
2019-03-19T08:48:00.611Z,101004.99
2019-03-19T08:50:32.729Z,101012.35
2019-03-19T08:53:03.364Z,101008.73
2019-03-19T08:55:34.042Z,101002.89
2019-03-19T08:58:04.338Z,101017.59
2019-03-19T09:00:34.596Z,101020.34
2019-03-19T09:03:05.820Z,101016.51
2019-03-19T09:05:36.128Z,101009.54
2019-03-19T09:08:07.856Z,101035.47
2019-03-19T09:10:38.095Z,101037.50
2019-03-19T09:13:08.331Z,101056.58
2019-03-19T09:15:38.926Z,101042.12
2019-03-19T09:18:09.233Z,101027.97
2019-03-19T09:20:39.438Z,101025.16
2019-03-19T09:23:09.676Z,101033.91
2019-03-19T09:25:39.921Z,101030.95
2019-03-19T09:28:10.198Z,101036.77
2019-03-19T09:30:40.440Z,101026.09
2019-03-19T09:33:10.666Z,101045.48
2019-03-19T09:35:41.084Z,101056.63
2019-03-19T09:38:11.279Z,101042.44
2019-03-19T09:40:41.609Z,101052.67
2019-03-19T09:43:13.732Z,101059.23
2019-03-19T09:45:44.414Z,101066.80
2019-03-19T09:48:15.089Z,101069.09
2019-03-19T09:50:45.750Z,101067.26
2019-03-19T09:53:16.096Z,101049.48
2019-03-19T09:55:46.316Z,101073.14
2019-03-19T09:58:16.542Z,101067.32
2019-03-19T10:00:47.106Z,101081.64
2019-03-19T10:03:17.401Z,101082.23
2019-03-19T10:05:48.013Z,101090.84
2019-03-19T10:08:18.659Z,101090.52
2019-03-19T10:10:48.942Z,101094.75
2019-03-19T10:13:19.190Z,101094.51
2019-03-19T10:15:49.670Z,101099.03
2019-03-19T10:18:21.143Z,101104.05
2019-03-19T10:20:51.449Z,101096.33
2019-03-19T10:23:22.040Z,101080.97
2019-03-19T10:25:52.758Z,101079.84
2019-03-19T10:28:23.122Z,101070.66
2019-03-19T10:30:53.699Z,101075.42
2019-03-19T10:33:24.015Z,101063.09
2019-03-19T10:35:54.252Z,101067.88
2019-03-19T10:38:25.317Z,101061.17
2019-03-19T10:40:55.923Z,101074.59
2019-03-19T10:43:26.206Z,101079.04
2019-03-19T10:45:56.794Z,101074.66
2019-03-19T10:48:27.107Z,101087.45
2019-03-19T10:50:57.357Z,101085.55
2019-03-19T10:53:27.645Z,101081.77
2019-03-19T10:55:58.833Z,101095.41
2019-03-19T10:58:30.520Z,101089.56
2019-03-19T11:01:01.095Z,101090.61
2019-03-19T11:03:31.839Z,101084.58
2019-03-19T11:06:02.541Z,101088.72
2019-03-19T11:08:32.808Z,101087.91
2019-03-19T11:11:03.699Z,101095.07
2019-03-19T11:13:34.493Z,101104.78
2019-03-19T11:16:06.318Z,101098.19
2019-03-19T11:18:36.623Z,101105.91
2019-03-19T11:21:07.235Z,101107.11
2019-03-19T11:23:37.864Z,101104.00
2019-03-19T11:26:08.219Z,101096.98
2019-03-19T11:28:38.861Z,101090.08
2019-03-19T11:31:09.221Z,101088.97
2019-03-19T11:33:39.464Z,101098.61
2019-03-19T11:36:09.762Z,101098.59
2019-03-19T11:38:40.331Z,101102.67
2019-03-19T11:41:11.003Z,101105.41
2019-03-19T11:43:41.654Z,101106.21
2019-03-19T11:46:12.312Z,101105.00
2019-03-19T11:48:42.956Z,101108.13
2019-03-19T11:51:13.263Z,101119.03
2019-03-19T11:53:43.858Z,101108.57
2019-03-19T11:56:14.199Z,101119.84
2019-03-19T11:58:44.857Z,101114.08
2019-03-19T12:01:15.536Z,101109.88
2019-03-19T12:03:46.098Z,101114.72
2019-03-19T12:06:18.426Z,101116.52
2019-03-19T12:08:49.034Z,101130.19
2019-03-19T12:11:19.321Z,101126.66
2019-03-19T12:13:49.610Z,101135.72
2019-03-19T12:16:19.837Z,101133.71
2019-03-19T12:18:50.108Z,101131.67
2019-03-19T12:21:20.337Z,101132.62
2019-03-19T12:23:50.551Z,101140.98
2019-03-19T12:26:20.819Z,101134.64
2019-03-19T12:28:51.034Z,101138.38
2019-03-19T12:31:21.311Z,101139.94
2019-03-19T12:33:51.859Z,101147.75
2019-03-19T12:36:22.509Z,101144.67
2019-03-19T12:38:53.143Z,101153.05
2019-03-19T12:41:23.426Z,101157.03
2019-03-19T12:43:53.634Z,101151.46
2019-03-19T12:46:23.866Z,101147.52
2019-03-19T12:48:54.439Z,101151.11
2019-03-19T12:51:25.157Z,101151.67
2019-03-19T12:53:55.788Z,101167.42
2019-03-19T12:56:27.125Z,101173.56
2019-03-19T12:58:57.769Z,101176.67
2019-03-19T13:01:28.636Z,101171.95
2019-03-19T13:03:59.060Z,101177.80
2019-03-19T13:06:29.336Z,101180.00
2019-03-19T13:08:59.547Z,101175.27
2019-03-19T13:11:29.780Z,101171.02
2019-03-19T13:14:00.021Z,101178.91
2019-03-19T13:16:30.257Z,101177.05
2019-03-19T13:19:00.512Z,101181.99
2019-03-19T13:21:31.110Z,101185.05
2019-03-19T13:24:01.764Z,101198.74
2019-03-19T13:26:32.452Z,101190.03
2019-03-19T13:29:02.777Z,101193.44
2019-03-19T13:31:32.994Z,101196.71
2019-03-19T13:34:03.259Z,101197.44
2019-03-19T13:36:33.490Z,101199.83
2019-03-19T13:39:05.215Z,101190.59
2019-03-19T13:41:35.445Z,101196.59
2019-03-19T13:44:06.016Z,101195.16
2019-03-19T13:46:36.666Z,101208.03
2019-03-19T13:49:06.968Z,101204.81
2019-03-19T13:51:37.179Z,101207.38
2019-03-19T13:54:07.413Z,101204.81
2019-03-19T13:56:38.130Z,101200.49
2019-03-19T13:59:09.703Z,101199.34
2019-03-19T14:01:39.911Z,101212.98
2019-03-19T14:04:10.152Z,101213.97
2019-03-19T14:06:40.399Z,101220.23
2019-03-19T14:09:10.979Z,101218.12
2019-03-19T14:11:41.703Z,101215.64
2019-03-19T14:14:12.345Z,101228.88
2019-03-19T14:16:42.660Z,101228.12
2019-03-19T14:19:13.004Z,101236.78
2019-03-19T14:21:43.593Z,101227.66
2019-03-19T14:24:14.284Z,101234.19
2019-03-19T14:26:44.922Z,101238.47
2019-03-19T14:29:15.566Z,101235.86
2019-03-19T14:31:46.195Z,101230.11
2019-03-19T14:34:16.501Z,101240.59
2019-03-19T14:36:46.715Z,101232.69
2019-03-19T14:39:17.313Z,101242.75
2019-03-19T14:41:47.954Z,101251.44
2019-03-19T14:44:18.281Z,101246.66
2019-03-19T14:46:48.841Z,101245.34
2019-03-19T14:49:19.175Z,101248.84
2019-03-19T14:51:49.710Z,101240.16
2019-03-19T14:54:20.020Z,101247.95
2019-03-19T14:56:50.262Z,101248.82
2019-03-19T14:59:20.467Z,101253.60
2019-03-19T15:01:50.865Z,101248.38
2019-03-19T15:04:22.533Z,101251.45
2019-03-19T15:06:53.734Z,101259.67
2019-03-19T15:09:26.213Z,101255.41
2019-03-19T15:11:57.605Z,101259.95
2019-03-19T15:14:27.883Z,101266.50
2019-03-19T15:17:04.936Z,101265.62
2019-03-19T15:19:33.162Z,101262.23
2019-03-19T15:22:04.000Z,101270.97
2019-03-19T15:24:37.570Z,101271.92
2019-03-19T15:27:07.878Z,101276.31
2019-03-19T15:29:38.104Z,101277.69
2019-03-19T15:32:08.361Z,101282.09
2019-03-19T15:34:41.268Z,101280.86
2019-03-19T15:37:11.854Z,101279.57
2019-03-19T15:39:44.070Z,101288.28
2019-03-19T15:42:14.320Z,101289.16
2019-03-19T15:44:44.562Z,101283.59
2019-03-19T15:47:15.261Z,101289.28
2019-03-19T15:49:45.751Z,101285.08
2019-03-19T15:52:22.118Z,101289.88
2019-03-19T15:54:53.960Z,101297.77
2019-03-19T15:57:24.162Z,101300.88
2019-03-19T15:59:54.794Z,101306.56
2019-03-19T16:02:25.148Z,101299.70
2019-03-19T16:04:55.879Z,101310.61
2019-03-19T16:07:26.112Z,101314.58
2019-03-19T16:09:59.726Z,101306.80
2019-03-19T16:12:31.134Z,101312.93
2019-03-19T16:15:01.692Z,101310.77
2019-03-19T16:17:32.364Z,101319.04
2019-03-19T16:20:02.873Z,101325.13
2019-03-19T16:22:38.607Z,101319.06
2019-03-19T16:25:10.311Z,101326.47
2019-03-19T16:27:42.644Z,101323.45
2019-03-19T16:30:20.654Z,101328.66
2019-03-19T16:32:51.389Z,101333.01
2019-03-19T16:35:21.764Z,101345.56
2019-03-19T16:37:54.984Z,101344.63
2019-03-19T16:40:25.205Z,101348.06
2019-03-19T16:42:57.211Z,101357.12
2019-03-19T16:45:28.011Z,101351.92
2019-03-19T16:47:59.643Z,101358.39
2019-03-19T16:50:30.204Z,101363.58
2019-03-19T16:53:00.504Z,101356.64
2019-03-19T16:55:31.546Z,101358.34
2019-03-19T16:58:01.757Z,101358.31
2019-03-19T17:00:33.948Z,101369.97
2019-03-19T17:03:05.839Z,101369.91
2019-03-19T17:05:36.944Z,101377.26
2019-03-19T17:08:07.466Z,101375.92
2019-03-19T17:10:37.686Z,101377.61
2019-03-19T17:13:16.733Z,101377.55
2019-03-19T17:15:48.602Z,101380.08
2019-03-19T17:18:19.304Z,101384.80
2019-03-19T17:20:49.595Z,101387.34
2019-03-19T17:23:19.832Z,101388.59
2019-03-19T17:25:51.933Z,101392.05
2019-03-19T17:28:22.926Z,101402.79
2019-03-19T17:30:53.463Z,101401.43
2019-03-19T17:33:23.753Z,101402.61
2019-03-19T17:35:54.935Z,101407.23
2019-03-19T17:38:27.503Z,101413.16
2019-03-19T17:41:00.725Z,101418.25
2019-03-19T17:43:32.842Z,101418.52
2019-03-19T17:46:02.894Z,101427.03
2019-03-19T17:48:33.543Z,101430.78
2019-03-19T17:51:04.137Z,101434.16
2019-03-19T17:53:34.777Z,101430.66
2019-03-19T17:56:05.184Z,101434.01
2019-03-19T17:58:35.743Z,101432.70
2019-03-19T18:01:16.787Z,101437.48
2019-03-19T18:03:38.395Z,101447.37
2019-03-19T18:06:08.716Z,101443.41
2019-03-19T18:08:39.351Z,101445.92
2019-03-19T18:11:09.979Z,101451.05
2019-03-19T18:13:40.272Z,101450.19
2019-03-19T18:16:10.482Z,101454.80
2019-03-19T18:18:41.095Z,101467.22
2019-03-19T18:21:11.702Z,101464.17
2019-03-19T18:23:42.363Z,101471.36
2019-03-19T18:26:13.142Z,101472.95
2019-03-19T18:28:43.898Z,101477.13
2019-03-19T18:31:14.300Z,101480.50
2019-03-19T18:33:44.582Z,101481.27
2019-03-19T18:36:15.148Z,101486.78
2019-03-19T18:38:45.913Z,101479.34
2019-03-19T18:41:16.528Z,101477.13
2019-03-19T18:43:46.835Z,101485.67
2019-03-19T18:46:18.174Z,101490.66
2019-03-19T18:48:48.488Z,101495.69
2019-03-19T18:51:19.048Z,101502.48
2019-03-19T18:53:49.688Z,101507.11
2019-03-19T18:56:20.370Z,101508.31
2019-03-19T18:58:50.638Z,101507.77
2019-03-19T19:01:20.910Z,101515.00
2019-03-19T19:03:51.579Z,101507.59
2019-03-19T19:06:23.032Z,101513.04
2019-03-19T19:08:53.237Z,101512.91
2019-03-19T19:11:23.514Z,101515.78
2019-03-19T19:13:53.803Z,101522.56
2019-03-19T19:16:25.881Z,101521.17
2019-03-19T19:18:57.503Z,101519.39
2019-03-19T19:21:27.796Z,101515.88
2019-03-19T19:23:58.043Z,101527.38
2019-03-19T19:26:28.251Z,101521.31
2019-03-19T19:28:59.660Z,101521.25
2019-03-19T19:31:29.876Z,101520.23
2019-03-19T19:34:00.459Z,101523.66
2019-03-19T19:36:30.782Z,101530.48
2019-03-19T19:39:03.706Z,101522.23
2019-03-19T19:41:35.067Z,101516.61
2019-03-19T19:44:05.723Z,101531.67
2019-03-19T19:46:36.012Z,101526.86
2019-03-19T19:49:06.595Z,101532.02
2019-03-19T19:51:36.952Z,101536.72
2019-03-19T19:54:07.176Z,101538.84
2019-03-19T19:56:39.094Z,101549.16
2019-03-19T19:59:09.991Z,101537.14
2019-03-19T20:01:40.916Z,101541.91
2019-03-19T20:04:11.486Z,101541.05
2019-03-19T20:06:41.798Z,101546.66
2019-03-19T20:09:12.031Z,101544.53
2019-03-19T20:11:42.315Z,101543.70
2019-03-19T20:14:14.678Z,101553.17
2019-03-19T20:16:44.939Z,101547.67
2019-03-19T20:19:15.174Z,101553.05
2019-03-19T20:21:45.415Z,101555.45
2019-03-19T20:24:15.988Z,101554.36
2019-03-19T20:26:46.297Z,101557.21
2019-03-19T20:29:16.530Z,101561.70
2019-03-19T20:31:47.108Z,101564.54
2019-03-19T20:34:17.378Z,101566.41
2019-03-19T20:36:48.033Z,101573.93
2019-03-19T20:39:18.355Z,101569.73
2019-03-19T20:41:48.564Z,101573.75
2019-03-19T20:44:18.847Z,101577.30
2019-03-19T20:46:49.177Z,101577.39
2019-03-19T20:49:19.393Z,101574.45
2019-03-19T20:51:49.653Z,101577.11
2019-03-19T20:54:19.888Z,101578.95
2019-03-19T20:56:50.105Z,101579.48
2019-03-19T20:59:20.399Z,101589.00
2019-03-19T21:01:52.505Z,101582.66
2019-03-19T21:04:23.159Z,101583.61
2019-03-19T21:06:53.458Z,101581.92
2019-03-19T21:09:24.029Z,101584.20
2019-03-19T21:11:54.954Z,101585.17
2019-03-19T21:14:25.244Z,101582.64
2019-03-19T21:16:57.489Z,101587.03
2019-03-19T21:19:27.759Z,101583.17
2019-03-19T21:22:00.548Z,101587.08
2019-03-19T21:24:30.677Z,101592.73
2019-03-19T21:27:00.897Z,101583.63
2019-03-19T21:29:31.283Z,101592.54
2019-03-19T21:32:03.030Z,101599.27
2019-03-19T21:34:34.748Z,101591.67
2019-03-19T21:37:05.184Z,101596.56
2019-03-19T21:39:35.422Z,101598.84
2019-03-19T21:42:05.787Z,101603.76
2019-03-19T21:44:37.198Z,101602.59
2019-03-19T21:47:07.775Z,101604.05
2019-03-19T21:49:38.080Z,101614.17
2019-03-19T21:52:08.736Z,101604.86
2019-03-19T21:54:39.157Z,101616.75
2019-03-19T21:57:10.653Z,101614.41
2019-03-19T21:59:40.887Z,101612.41
2019-03-19T22:02:11.835Z,101622.16
2019-03-19T22:04:42.303Z,101624.98
2019-03-19T22:07:12.544Z,101628.20
2019-03-19T22:09:42.766Z,101627.59
2019-03-19T22:12:13.074Z,101626.14
2019-03-19T22:14:43.722Z,101639.78
2019-03-19T22:17:14.204Z,101636.13
2019-03-19T22:19:44.494Z,101636.05
2019-03-19T22:22:14.734Z,101642.95
2019-03-19T22:24:48.414Z,101646.25
2019-03-19T22:27:19.208Z,101640.42
2019-03-19T22:29:50.741Z,101645.74
2019-03-19T22:32:22.456Z,101645.20
2019-03-19T22:34:52.746Z,101648.98
2019-03-19T22:37:22.985Z,101644.61
2019-03-19T22:39:53.256Z,101650.42
2019-03-19T22:42:23.981Z,101647.63
2019-03-19T22:44:54.318Z,101651.27
2019-03-19T22:47:24.503Z,101649.30
2019-03-19T22:49:54.741Z,101659.83
2019-03-19T22:52:25.366Z,101656.16
2019-03-19T22:54:55.843Z,101656.34
2019-03-19T22:57:26.137Z,101660.87
2019-03-19T22:59:56.375Z,101660.59
2019-03-19T23:02:26.625Z,101663.43
2019-03-19T23:04:56.853Z,101667.09
2019-03-19T23:07:27.238Z,101670.25
2019-03-19T23:09:57.468Z,101678.14
2019-03-19T23:12:29.668Z,101671.45
2019-03-19T23:15:00.061Z,101677.63
2019-03-19T23:17:30.297Z,101686.37
2019-03-19T23:20:00.545Z,101685.39
2019-03-19T23:22:30.780Z,101690.33
2019-03-19T23:25:01.040Z,101692.73
2019-03-19T23:27:31.651Z,101689.19
2019-03-19T23:30:02.264Z,101686.45
2019-03-19T23:32:33.344Z,101694.41
2019-03-19T23:35:06.893Z,101694.82
2019-03-19T23:37:37.194Z,101699.14
2019-03-19T23:40:10.563Z,101696.98
2019-03-19T23:42:40.877Z,101694.05
2019-03-19T23:45:13.084Z,101698.48
2019-03-19T23:47:43.443Z,101695.92
2019-03-19T23:50:21.324Z,101701.12
2019-03-19T23:52:51.619Z,101705.48
2019-03-19T23:55:22.197Z,101706.47
2019-03-19T23:57:52.501Z,101711.25
